createdAt,value
2023-02-19T00:00:14.824Z,76260.75
2023-02-19T00:02:41.614Z,76264.59
2023-02-19T00:05:08.356Z,76264.59
2023-02-19T00:07:34.992Z,76266.53
2023-02-19T00:10:01.611Z,76270.38
2023-02-19T00:12:28.241Z,76266.53
2023-02-19T00:14:57.231Z,76270.38
2023-02-19T00:17:23.841Z,76266.53
2023-02-19T00:19:50.560Z,76270.38
2023-02-19T00:22:17.172Z,76274.22
2023-02-19T00:24:43.801Z,76266.53
2023-02-19T00:27:10.447Z,76260.75
2023-02-19T00:29:37.249Z,76258.81
2023-02-19T00:32:04.108Z,76262.66
2023-02-19T00:34:30.918Z,76274.22
2023-02-19T00:36:57.525Z,76276.16
2023-02-19T00:39:24.348Z,76281.94
2023-02-19T00:41:51.358Z,76285.78
2023-02-19T00:44:18.224Z,76285.78
2023-02-19T00:46:48.506Z,76285.78
2023-02-19T00:49:20.941Z,76285.78
2023-02-19T00:51:48.775Z,76285.78
2023-02-19T00:54:15.743Z,76289.66
2023-02-19T00:56:42.393Z,76291.56
2023-02-19T00:59:09.464Z,76291.56
2023-02-19T01:01:36.579Z,76293.50
2023-02-19T01:04:06.227Z,76293.50
2023-02-19T01:06:34.666Z,76308.91
2023-02-19T01:09:01.390Z,76316.63
2023-02-19T01:11:28.013Z,76324.34
2023-02-19T01:13:59.343Z,76322.41
2023-02-19T01:16:27.570Z,76320.47
2023-02-19T01:18:54.458Z,76314.69
2023-02-19T01:21:23.943Z,76324.34
2023-02-19T01:23:51.652Z,76324.34
2023-02-19T01:26:23.305Z,76332.03
2023-02-19T01:28:50.154Z,76332.03
2023-02-19T01:31:20.301Z,76341.69
2023-02-19T01:34:04.829Z,76343.59
2023-02-19T01:36:34.308Z,76351.31
2023-02-19T01:39:05.179Z,76359.00
2023-02-19T01:41:35.227Z,76359.00
2023-02-19T01:44:11.584Z,76364.81
2023-02-19T01:46:40.480Z,76366.72
2023-02-19T01:49:15.896Z,76353.25
2023-02-19T01:51:46.304Z,76355.16
2023-02-19T01:54:16.529Z,76357.09
2023-02-19T01:56:45.215Z,76364.81
2023-02-19T01:59:13.166Z,76366.72
2023-02-19T02:01:41.110Z,76364.81
2023-02-19T02:04:11.078Z,76366.72
2023-02-19T02:06:52.139Z,76374.44
2023-02-19T02:09:38.589Z,76378.28
2023-02-19T02:12:05.561Z,76384.06
2023-02-19T02:14:36.368Z,76372.50
2023-02-19T02:17:15.196Z,76382.13
2023-02-19T02:20:15.850Z,76389.84
2023-02-19T02:23:12.024Z,76397.56
2023-02-19T02:25:38.910Z,76403.34
2023-02-19T02:28:11.803Z,76409.13
2023-02-19T02:30:54.831Z,76405.25
2023-02-19T02:33:23.815Z,76397.56
2023-02-19T02:35:58.585Z,76393.69
2023-02-19T02:38:28.840Z,76391.78
2023-02-19T02:40:56.863Z,76386.00
2023-02-19T02:43:24.518Z,76387.91
2023-02-19T02:45:51.246Z,76382.13
2023-02-19T02:48:26.110Z,76389.84
2023-02-19T02:51:04.781Z,76389.84
2023-02-19T02:54:11.405Z,76382.13
2023-02-19T02:56:41.320Z,76387.91
2023-02-19T02:59:10.982Z,76389.84
2023-02-19T03:02:11.490Z,76397.56
2023-02-19T03:05:04.210Z,76397.56
2023-02-19T03:07:37.377Z,76393.69
2023-02-19T03:10:08.316Z,76401.41
2023-02-19T03:12:57.774Z,76395.63
2023-02-19T03:15:48.836Z,76387.91
2023-02-19T03:18:38.364Z,76380.22
2023-02-19T03:21:07.185Z,76386.00
2023-02-19T03:23:55.212Z,76378.28
2023-02-19T03:26:23.952Z,76374.44
2023-02-19T03:29:11.643Z,76372.50
2023-02-19T03:31:44.271Z,76372.50
2023-02-19T03:34:17.635Z,76359.00
2023-02-19T03:36:51.175Z,76355.16
2023-02-19T03:39:22.298Z,76351.31
2023-02-19T03:41:58.735Z,76360.94
2023-02-19T03:44:53.519Z,76364.81
2023-02-19T03:47:27.289Z,76374.44
2023-02-19T03:50:00.298Z,76374.44
2023-02-19T03:52:44.904Z,76378.28
2023-02-19T03:55:17.614Z,76366.72
2023-02-19T03:58:07.712Z,76359.00
2023-02-19T04:00:57.564Z,76366.72
2023-02-19T04:03:28.502Z,76353.25
2023-02-19T04:06:18.943Z,76345.53
2023-02-19T04:08:50.375Z,76345.53
2023-02-19T04:11:20.121Z,76351.31
2023-02-19T04:14:10.953Z,76347.47
2023-02-19T04:16:42.562Z,76351.31
2023-02-19T04:19:13.164Z,76347.47
2023-02-19T04:21:42.061Z,76349.38
2023-02-19T04:24:19.500Z,76351.31
2023-02-19T04:26:46.201Z,76351.31
2023-02-19T04:29:12.798Z,76347.47
2023-02-19T04:31:39.448Z,76347.47
2023-02-19T04:34:06.110Z,76351.31
2023-02-19T04:36:33.644Z,76349.38
2023-02-19T04:39:00.627Z,76349.38
2023-02-19T04:41:27.294Z,76339.75
2023-02-19T04:43:53.912Z,76337.81
2023-02-19T04:46:20.561Z,76337.81
2023-02-19T04:48:48.463Z,76335.91
2023-02-19T04:51:15.064Z,76330.13
2023-02-19T04:53:42.811Z,76328.19
2023-02-19T04:56:12.425Z,76324.34
2023-02-19T04:58:39.790Z,76333.97
2023-02-19T05:01:06.529Z,76330.13
2023-02-19T05:03:35.236Z,76328.19
2023-02-19T05:06:10.661Z,76324.34
2023-02-19T05:08:38.074Z,76316.63
2023-02-19T05:11:07.061Z,76314.69
2023-02-19T05:13:34.231Z,76316.63
2023-02-19T05:16:13.920Z,76320.47
2023-02-19T05:18:42.109Z,76322.41
2023-02-19T05:21:10.114Z,76322.41
2023-02-19T05:23:37.442Z,76320.47
2023-02-19T05:26:07.932Z,76333.97
2023-02-19T05:28:34.920Z,76335.91
2023-02-19T05:31:06.747Z,76339.75
2023-02-19T05:33:33.711Z,76339.75
2023-02-19T05:36:08.508Z,76328.19
2023-02-19T05:38:36.233Z,76335.91
2023-02-19T05:41:18.210Z,76335.91
2023-02-19T05:43:46.556Z,76335.91
2023-02-19T05:46:17.132Z,76343.59
2023-02-19T05:48:43.830Z,76333.97
2023-02-19T05:51:16.637Z,76333.97
2023-02-19T05:53:44.299Z,76332.03
2023-02-19T05:56:33.030Z,76332.03
2023-02-19T05:59:03.721Z,76332.03
2023-02-19T06:01:31.064Z,76332.03
2023-02-19T06:03:58.376Z,76335.91
2023-02-19T06:06:26.172Z,76339.75
2023-02-19T06:08:53.332Z,76351.31
2023-02-19T06:11:20.899Z,76339.75
2023-02-19T06:13:49.535Z,76343.59
2023-02-19T06:16:17.782Z,76339.75
2023-02-19T06:18:45.467Z,76337.81
2023-02-19T06:21:13.209Z,76337.81
2023-02-19T06:23:40.488Z,76337.81
2023-02-19T06:26:24.367Z,76345.53
2023-02-19T06:28:53.405Z,76351.31
2023-02-19T06:31:22.122Z,76360.94
2023-02-19T06:33:50.724Z,76355.16
2023-02-19T06:36:20.010Z,76359.00
2023-02-19T06:38:46.720Z,76359.00
2023-02-19T06:41:14.551Z,76355.16
2023-02-19T06:43:41.880Z,76353.25
2023-02-19T06:46:08.942Z,76351.31
2023-02-19T06:48:35.833Z,76359.00
2023-02-19T06:51:03.164Z,76355.16
2023-02-19T06:53:30.158Z,76357.09
2023-02-19T06:56:01.736Z,76357.09
2023-02-19T06:58:28.946Z,76359.00
2023-02-19T07:00:55.816Z,76347.47
2023-02-19T07:03:23.151Z,76339.75
2023-02-19T07:05:50.233Z,76335.91
2023-02-19T07:08:17.404Z,76322.41
2023-02-19T07:10:44.992Z,76318.56
2023-02-19T07:13:11.853Z,76308.91
2023-02-19T07:15:38.694Z,76301.22
2023-02-19T07:18:07.606Z,76280.00
2023-02-19T07:20:34.235Z,76266.53
2023-02-19T07:23:00.919Z,76262.66
2023-02-19T07:25:27.644Z,76251.13
2023-02-19T07:27:54.225Z,76243.41
2023-02-19T07:30:20.889Z,76241.47
2023-02-19T07:32:47.494Z,76212.56
2023-02-19T07:35:14.257Z,76195.22
2023-02-19T07:37:41.554Z,76185.59
2023-02-19T07:40:08.596Z,76166.34
2023-02-19T07:42:37.118Z,76150.91
2023-02-19T07:45:04.173Z,76135.50
2023-02-19T07:47:30.830Z,76129.72
2023-02-19T07:49:57.484Z,76123.94
2023-02-19T07:52:24.140Z,76127.78
2023-02-19T07:54:50.812Z,76133.56
2023-02-19T07:57:17.409Z,76129.72
2023-02-19T07:59:43.998Z,76122.00
2023-02-19T08:02:37.501Z,76120.09
2023-02-19T08:05:05.573Z,76118.16
2023-02-19T08:21:22.953Z,76133.56
2023-02-19T08:23:54.476Z,76141.28
2023-02-19T08:26:23.368Z,76139.34
2023-02-19T08:28:49.950Z,76123.94
2023-02-19T08:31:16.876Z,76120.09
2023-02-19T08:33:48.513Z,76127.78
2023-02-19T08:36:15.243Z,76143.22
2023-02-19T08:38:42.042Z,76139.34
2023-02-19T08:41:14.202Z,76127.78
2023-02-19T08:51:40.594Z,76012.19
2023-02-19T08:54:07.244Z,75969.81
2023-02-19T08:56:33.873Z,75954.38
2023-02-19T08:59:00.541Z,75912.00
2023-02-19T09:01:27.302Z,75919.72
2023-02-19T09:03:54.092Z,75942.84
2023-02-19T09:06:21.445Z,75981.38
2023-02-19T09:08:48.084Z,75992.94
2023-02-19T09:11:15.295Z,75989.06
2023-02-19T09:13:42.604Z,76004.47
2023-02-19T09:16:09.652Z,76006.41
2023-02-19T09:18:36.395Z,75992.94
2023-02-19T09:21:05.469Z,75954.38
2023-02-19T09:23:36.565Z,76004.47
2023-02-19T09:26:06.781Z,76019.91
2023-02-19T09:28:33.422Z,76039.16
2023-02-19T09:31:08.418Z,75989.06
2023-02-19T09:33:35.424Z,75902.38
2023-02-19T09:36:03.209Z,75846.50
2023-02-19T09:38:30.949Z,75831.09
2023-02-19T09:40:59.026Z,75781.00
2023-02-19T09:43:28.197Z,75827.22
2023-02-19T09:46:03.036Z,75702.00
2023-02-19T09:48:30.136Z,75680.81
2023-02-19T09:50:58.990Z,75734.75
2023-02-19T09:53:34.684Z,75698.16
2023-02-19T09:56:01.585Z,75711.63
2023-02-19T09:58:38.710Z,75676.97
2023-02-19T10:01:07.849Z,75696.22
2023-02-19T10:03:40.676Z,75651.91
2023-02-19T10:06:29.246Z,75653.84
2023-02-19T10:09:23.745Z,75736.69
2023-02-19T10:11:52.015Z,75698.16
2023-02-19T10:14:28.852Z,75711.63
2023-02-19T10:17:01.094Z,75634.56
2023-02-19T10:19:27.735Z,75680.81
2023-02-19T10:21:57.023Z,75725.13
2023-02-19T10:24:28.810Z,75680.81
2023-02-19T10:26:56.457Z,75711.63
2023-02-19T10:29:24.982Z,75682.75
2023-02-19T10:32:13.482Z,75653.84
2023-02-19T10:34:41.481Z,75626.88
2023-02-19T10:37:15.747Z,75580.63
2023-02-19T10:39:49.054Z,75623.03
2023-02-19T10:42:21.174Z,75619.16
2023-02-19T10:44:58.536Z,75596.03
2023-02-19T10:47:27.149Z,75574.84
2023-02-19T10:49:59.024Z,75584.50
2023-02-19T10:52:31.896Z,75553.66
2023-02-19T10:55:32.397Z,75519.00
2023-02-19T10:58:21.190Z,75555.59
2023-02-19T11:13:42.556Z,75515.13
2023-02-19T11:16:09.352Z,75588.34
2023-02-19T11:18:36.448Z,75580.63
2023-02-19T11:21:06.727Z,75574.84
2023-02-19T11:23:45.027Z,75580.63
2023-02-19T11:26:24.500Z,75542.09
2023-02-19T11:28:59.405Z,75582.56
2023-02-19T11:31:32.094Z,75592.19
2023-02-19T11:34:13.818Z,75553.66
2023-02-19T11:36:42.070Z,75572.94
2023-02-19T11:39:17.769Z,75592.19
2023-02-19T11:41:53.737Z,75584.50
2023-02-19T11:44:25.801Z,75592.19
2023-02-19T11:47:30.263Z,75661.56
2023-02-19T11:50:02.674Z,75757.88
2023-02-19T11:52:32.014Z,75794.47
2023-02-19T11:55:10.502Z,75819.53
2023-02-19T11:57:51.357Z,75865.75
2023-02-19T12:00:20.823Z,75888.88
2023-02-19T12:03:11.799Z,75915.84
2023-02-19T12:06:05.603Z,75973.66
2023-02-19T12:08:47.301Z,76010.25
2023-02-19T12:11:25.969Z,76023.75
2023-02-19T12:14:40.454Z,76031.47
2023-02-19T12:17:35.934Z,76031.47
2023-02-19T12:20:11.372Z,76031.47
2023-02-19T12:22:48.652Z,76039.16
2023-02-19T12:25:51.465Z,76054.59
2023-02-19T12:28:39.597Z,76116.25
2023-02-19T12:31:35.043Z,76122.00
2023-02-19T12:34:08.143Z,76123.94
2023-02-19T12:37:07.321Z,76150.91
2023-02-19T12:39:45.930Z,76137.44
2023-02-19T12:42:40.896Z,76129.72
2023-02-19T12:45:20.182Z,76106.59
2023-02-19T12:48:08.141Z,76081.56
2023-02-19T12:50:39.172Z,76073.84
2023-02-19T12:53:11.423Z,76089.25
2023-02-19T12:55:44.731Z,76131.66
2023-02-19T12:58:29.838Z,76150.91
2023-02-19T13:00:59.738Z,76139.34
2023-02-19T13:03:39.093Z,76104.69
2023-02-19T13:06:33.305Z,76062.28
2023-02-19T13:09:07.772Z,76043.03
2023-02-19T13:11:48.230Z,76019.91
2023-02-19T13:14:34.517Z,76008.34
2023-02-19T13:17:09.388Z,76016.03
2023-02-19T13:19:38.469Z,76019.91
2023-02-19T13:22:50.093Z,76054.59
2023-02-19T13:25:19.085Z,76096.97
2023-02-19T13:27:55.804Z,76143.22
2023-02-19T13:30:36.253Z,76162.47
2023-02-19T13:33:23.754Z,76181.75
2023-02-19T13:36:05.927Z,76166.34
2023-02-19T13:38:37.519Z,76175.97
2023-02-19T13:41:04.607Z,76197.16
2023-02-19T13:43:35.752Z,76202.94
2023-02-19T13:46:06.392Z,76228.00
2023-02-19T13:48:37.417Z,76270.38
2023-02-19T13:51:16.292Z,76280.00
2023-02-19T13:53:45.667Z,76307.00
2023-02-19T13:56:36.981Z,76332.03
2023-02-19T13:59:36.263Z,76364.81
2023-02-19T14:02:06.377Z,76384.06
2023-02-19T14:04:51.148Z,76393.69
2023-02-19T14:07:17.813Z,76403.34
2023-02-19T14:09:45.717Z,76416.81
2023-02-19T14:12:16.282Z,76439.94
2023-02-19T14:14:45.818Z,76447.66
2023-02-19T14:17:40.046Z,76459.22
2023-02-19T14:20:09.402Z,76466.94
2023-02-19T14:22:45.165Z,76472.72
2023-02-19T14:25:27.165Z,76472.72
2023-02-19T14:28:27.086Z,76470.78
2023-02-19T14:31:16.245Z,76488.13
2023-02-19T14:33:48.441Z,76488.13
2023-02-19T14:36:31.145Z,76478.50
2023-02-19T14:39:22.429Z,76470.78
2023-02-19T14:41:52.754Z,76470.78
2023-02-19T14:44:25.825Z,76470.78
2023-02-19T14:47:03.394Z,76461.16
2023-02-19T14:49:44.390Z,76461.16
2023-02-19T14:52:24.820Z,76465.00
2023-02-19T14:55:01.522Z,76459.22
2023-02-19T14:57:38.339Z,76447.66
2023-02-19T15:00:23.740Z,76443.81
2023-02-19T15:02:52.110Z,76441.88
2023-02-19T15:05:23.753Z,76434.16
2023-02-19T15:07:52.825Z,76422.59
2023-02-19T15:10:19.932Z,76412.97
2023-02-19T15:12:51.421Z,76405.25
2023-02-19T15:15:29.784Z,76403.34
2023-02-19T15:17:59.048Z,76403.34
2023-02-19T15:20:29.212Z,76397.56
2023-02-19T15:22:59.602Z,76395.63
2023-02-19T15:25:44.260Z,76403.34
2023-02-19T15:28:26.166Z,76411.03
2023-02-19T15:30:59.123Z,76416.81
2023-02-19T15:33:27.450Z,76428.38
2023-02-19T15:35:57.626Z,76439.94
2023-02-19T15:38:25.522Z,76455.38
2023-02-19T15:40:53.538Z,76478.50
2023-02-19T15:43:41.474Z,76497.75
2023-02-19T15:46:16.433Z,76611.44
2023-02-19T15:48:48.883Z,76696.25
2023-02-19T15:51:24.577Z,76763.69
2023-02-19T15:53:56.965Z,76808.00
2023-02-19T15:56:28.456Z,76833.06
2023-02-19T15:59:26.935Z,76848.47
2023-02-19T16:01:54.040Z,76863.91
2023-02-19T16:04:20.736Z,76883.19
2023-02-19T16:06:59.866Z,76887.03
2023-02-19T16:09:35.686Z,76892.81
2023-02-19T16:12:04.681Z,76883.19
2023-02-19T16:14:34.497Z,76890.88
2023-02-19T16:17:13.351Z,76887.03
2023-02-19T16:19:42.987Z,76892.81
2023-02-19T16:22:12.626Z,76902.44
2023-02-19T16:24:45.339Z,76900.53
2023-02-19T16:27:27.564Z,76906.31
2023-02-19T16:29:54.874Z,76910.16
2023-02-19T16:32:21.604Z,76914.00
2023-02-19T16:34:51.094Z,76915.94
2023-02-19T16:37:30.964Z,76929.44
2023-02-19T16:40:14.042Z,76927.50
2023-02-19T16:42:51.203Z,76908.22
2023-02-19T16:45:18.406Z,76898.59
2023-02-19T16:47:48.563Z,76929.44
2023-02-19T16:50:18.664Z,76935.22
2023-02-19T16:52:56.780Z,76941.00
2023-02-19T16:55:24.320Z,76958.34
2023-02-19T16:57:50.957Z,76969.91
2023-02-19T17:00:23.329Z,76975.69
2023-02-19T17:02:51.736Z,76973.75
2023-02-19T17:05:19.956Z,76977.59
2023-02-19T17:07:46.664Z,76979.53
2023-02-19T17:10:17.037Z,76975.69
2023-02-19T17:12:43.855Z,76981.47
2023-02-19T17:15:11.936Z,76996.88
2023-02-19T17:17:38.946Z,77014.22
2023-02-19T17:20:24.055Z,77016.16
2023-02-19T17:22:51.794Z,77027.72
2023-02-19T17:25:18.483Z,77037.34
2023-02-19T17:27:45.113Z,77031.56
2023-02-19T17:30:16.684Z,77041.22
2023-02-19T17:32:43.322Z,77041.22
2023-02-19T17:35:10.508Z,77043.13
2023-02-19T17:37:37.067Z,77056.63
2023-02-19T17:40:03.921Z,77052.78
2023-02-19T17:42:30.605Z,77060.47
2023-02-19T17:44:57.271Z,77068.19
2023-02-19T17:47:23.966Z,77068.19
2023-02-19T17:49:50.726Z,77079.75
2023-02-19T17:52:19.370Z,77072.03
2023-02-19T17:54:46.072Z,77068.19
2023-02-19T17:57:12.753Z,77064.34
2023-02-19T17:59:39.409Z,77041.22
2023-02-19T18:02:06.455Z,77037.34
2023-02-19T18:04:36.206Z,77021.94
2023-02-19T18:07:03.437Z,76985.31
2023-02-19T18:09:30.140Z,76944.84
2023-02-19T18:11:56.924Z,77025.78
2023-02-19T18:14:23.759Z,77048.91
2023-02-19T18:16:50.821Z,76998.81
2023-02-19T18:19:17.933Z,77021.94
2023-02-19T18:21:44.608Z,77064.34
2023-02-19T18:24:11.356Z,77102.88
2023-02-19T18:26:38.096Z,77114.44
2023-02-19T18:29:05.588Z,77118.31
2023-02-19T18:31:33.749Z,77122.16
2023-02-19T18:34:00.635Z,77133.72
2023-02-19T18:36:27.290Z,77122.16
2023-02-19T18:38:54.069Z,77139.50
2023-02-19T18:41:21.233Z,77151.06
2023-02-19T18:43:48.624Z,77149.13
2023-02-19T18:46:15.529Z,77147.22
2023-02-19T18:48:42.898Z,77160.69
2023-02-19T18:51:11.346Z,77160.69
2023-02-19T18:53:38.563Z,77172.28
2023-02-19T18:56:05.538Z,77176.13
2023-02-19T18:58:32.228Z,77191.53
2023-02-19T19:00:59.591Z,77191.53
2023-02-19T19:03:26.390Z,77203.09
2023-02-19T19:05:53.286Z,77218.53
2023-02-19T19:08:19.925Z,77237.78
2023-02-19T19:10:46.571Z,77245.50
2023-02-19T19:13:13.280Z,77257.06
2023-02-19T19:15:41.366Z,77274.41
2023-02-19T19:18:08.827Z,77280.19
2023-02-19T19:20:35.505Z,77295.63
2023-02-19T19:23:02.403Z,77307.19
2023-02-19T19:25:29.047Z,77303.34
2023-02-19T19:27:56.330Z,77307.19
2023-02-19T19:30:23.472Z,77314.91
2023-02-19T19:32:54.609Z,77334.16
2023-02-19T19:35:21.570Z,77338.03
2023-02-19T19:37:48.827Z,77355.38
2023-02-19T19:40:17.718Z,77361.16
2023-02-19T19:42:44.749Z,77374.66
2023-02-19T19:45:11.853Z,77376.56
2023-02-19T19:47:38.491Z,77384.28
2023-02-19T19:50:05.522Z,77395.84
2023-02-19T19:52:32.106Z,77397.78
2023-02-19T19:54:58.708Z,77403.56
2023-02-19T19:57:25.387Z,77411.25
2023-02-19T19:59:52.134Z,77409.34
2023-02-19T20:02:19.033Z,77418.97
2023-02-19T20:04:45.793Z,77418.97
2023-02-19T20:07:12.413Z,77430.53
2023-02-19T20:09:38.985Z,77434.41
2023-02-19T20:12:06.527Z,77438.25
2023-02-19T20:14:33.767Z,77438.25
2023-02-19T20:17:00.338Z,77436.31
2023-02-19T20:19:26.914Z,77445.97
2023-02-19T20:21:54.143Z,77453.69
2023-02-19T20:24:24.880Z,77459.47
2023-02-19T20:26:59.563Z,77465.25
2023-02-19T20:29:30.828Z,77463.31
2023-02-19T20:32:03.461Z,77472.94
2023-02-19T20:34:31.263Z,77474.88
2023-02-19T20:36:57.981Z,77494.16
2023-02-19T20:39:28.815Z,77488.38
2023-02-19T20:41:56.971Z,77492.22
2023-02-19T20:44:25.600Z,77505.72
2023-02-19T20:46:53.253Z,77511.50
2023-02-19T20:49:24.262Z,77507.66
2023-02-19T20:51:54.847Z,77509.56
2023-02-19T20:54:30.308Z,77511.50
2023-02-19T20:57:00.004Z,77526.91
2023-02-19T20:59:35.074Z,77519.22
2023-02-19T21:02:07.034Z,77519.22
2023-02-19T21:04:34.199Z,77534.63
2023-02-19T21:07:00.859Z,77534.63
2023-02-19T21:09:27.509Z,77526.91
2023-02-19T21:11:54.156Z,77536.56
2023-02-19T21:14:21.273Z,77548.13
2023-02-19T21:16:48.177Z,77538.47
2023-02-19T21:19:14.992Z,77542.34
2023-02-19T21:21:41.755Z,77538.47
2023-02-19T21:24:09.567Z,77532.69
2023-02-19T21:26:38.759Z,77538.47
2023-02-19T21:29:07.470Z,77536.56
2023-02-19T21:31:45.820Z,77538.47
2023-02-19T21:34:15.122Z,77553.91
2023-02-19T21:36:41.909Z,77546.19
2023-02-19T21:39:10.229Z,77546.19
2023-02-19T21:41:36.978Z,77557.75
2023-02-19T21:44:04.447Z,77553.91
2023-02-19T21:46:32.922Z,77557.75
2023-02-19T21:49:00.772Z,77557.75
2023-02-19T21:51:36.124Z,77557.75
2023-02-19T21:54:04.412Z,77571.25
2023-02-19T21:56:35.054Z,77569.31
2023-02-19T21:59:02.873Z,77580.91
2023-02-19T22:01:32.649Z,77577.03
2023-02-19T22:04:00.162Z,77584.75
2023-02-19T22:06:30.493Z,77586.69
2023-02-19T22:08:58.688Z,77590.53
2023-02-19T22:11:26.021Z,77596.31
2023-02-19T22:13:52.686Z,77600.16
2023-02-19T22:16:19.842Z,77600.16
2023-02-19T22:18:55.035Z,77604.03
2023-02-19T22:21:23.350Z,77611.72
2023-02-19T22:23:52.020Z,77615.59
2023-02-19T22:26:22.433Z,77607.88
2023-02-19T22:28:49.780Z,77607.88
2023-02-19T22:31:19.070Z,77607.88
2023-02-19T22:33:45.936Z,77611.72
2023-02-19T22:36:24.664Z,77611.72
2023-02-19T22:38:51.780Z,77613.66
2023-02-19T22:41:19.245Z,77621.38
2023-02-19T22:43:46.329Z,77632.94
2023-02-19T22:46:22.897Z,77629.09
2023-02-19T22:48:50.664Z,77627.16
2023-02-19T22:51:19.851Z,77634.88
2023-02-19T22:53:48.240Z,77638.72
2023-02-19T22:56:16.647Z,77638.72
2023-02-19T22:58:44.184Z,77642.56
2023-02-19T23:01:12.772Z,77650.28
2023-02-19T23:03:52.316Z,77642.56
2023-02-19T23:06:24.128Z,77658.00
2023-02-19T23:08:51.624Z,77669.56
2023-02-19T23:11:24.835Z,77673.41
2023-02-19T23:13:51.947Z,77673.41
2023-02-19T23:16:18.720Z,77679.19
2023-02-19T23:18:45.432Z,77677.28
2023-02-19T23:21:12.904Z,77673.41
2023-02-19T23:23:43.858Z,77681.13
2023-02-19T23:26:11.730Z,77681.13
2023-02-19T23:28:43.752Z,77673.41
2023-02-19T23:31:11.166Z,77677.28
2023-02-19T23:33:38.180Z,77671.50
2023-02-19T23:36:05.735Z,77681.13
2023-02-19T23:38:32.512Z,77677.28
2023-02-19T23:40:59.365Z,77686.91
2023-02-19T23:43:26.403Z,77686.91
2023-02-19T23:45:53.263Z,77684.97
2023-02-19T23:48:19.901Z,77690.75
2023-02-19T23:50:46.505Z,77684.97
2023-02-19T23:53:13.090Z,77688.84
2023-02-19T23:55:39.762Z,77677.28
2023-02-19T23:58:06.353Z,77677.28
